Terminal Aerodrome Forecast
Issued by NWS Shreveport, LA

Home | Current Version | Previous Version | Text Only | Print | Product List | Glossary On
Versions: 1 2 3 4 5 6 7 8 9 10 11 12 13
000
FTUS44 KSHV 301141
TAFELD
TAF
KELD 301141Z 3012/0112 21006KT P6SM SCT011 SCT150 BKN250
      TEMPO 3013/3016 BKN011
     FM301600 25009KT P6SM VCTS SCT025CB BKN150 BKN250
      TEMPO 3016/3019 3SM TSRA BR BKN020CB
     FM301900 24009KT P6SM VCTS BKN040CB
     FM302100 22008KT P6SM SCT050 SCT150 BKN250
     FM010100 20005KT P6SM FEW050 SCT150 BKN250
     FM010600 22004KT P6SM SCT250=

USA.gov is the U.S. government's official web portal to all federal, state and local government web resources and services.